Time;durP1;ratioP1;P1;durP2;ratioP2;P2;SDS_P1;SDS_P2;PMS_P1;PMS_P2;Temp;Humidity;BMP_temperature;BMP_pressure;BME280_temperature;BME280_humidity;BME280_pressure;Samples;Min_cycle;Max_cycle;Signal;HPM_P1;HPM_P2
2022/07/29 00:00:58;;;;;;;2.60;0.55;;;10.80;99.90;;;;;;5034748;28;20152;-64
2022/07/29 00:03:25;;;;;;;2.42;0.85;;;10.80;99.90;;;;;;5015538;28;20382;-64
2022/07/29 00:05:52;;;;;;;1.27;0.45;;;10.80;99.90;;;;;;5040899;28;20056;-68
2022/07/29 00:08:20;;;;;;;0.52;0.40;;;10.70;99.90;;;;;;5039333;28;20103;-69
2022/07/29 00:10:47;;;;;;;0.75;0.52;;;10.70;99.90;;;;;;5033402;28;20118;-67
2022/07/29 00:13:14;;;;;;;0.77;0.43;;;10.70;99.90;;;;;;5041205;28;20037;-64
2022/07/29 00:15:41;;;;;;;3.88;1.42;;;10.70;99.90;;;;;;5036750;28;20069;-66
2022/07/29 00:18:08;;;;;;;0.50;0.32;;;10.60;99.90;;;;;;5036457;28;20110;-65
2022/07/29 00:20:34;;;;;;;2.92;0.57;;;10.60;99.90;;;;;;5044551;28;20068;-64
2022/07/29 00:23:01;;;;;;;2.70;0.52;;;10.60;99.90;;;;;;5040430;28;20041;-64
2022/07/29 00:25:28;;;;;;;0.43;0.30;;;10.60;99.90;;;;;;5040529;28;20067;-64
2022/07/29 00:27:56;;;;;;;0.57;0.57;;;10.60;99.90;;;;;;5041247;28;20130;-65
2022/07/29 00:30:23;;;;;;;0.47;0.40;;;10.50;99.90;;;;;;5044860;28;20099;-63
2022/07/29 00:32:50;;;;;;;1.00;0.55;;;10.50;99.90;;;;;;5044990;28;20395;-65
2022/07/29 00:38:02;;;;;;;1.02;0.50;;;10.50;99.90;;;;;;5036233;28;20118;-64
2022/07/29 00:40:29;;;;;;;0.55;0.55;;;10.40;99.90;;;;;;5036104;28;20099;-67
2022/07/29 00:42:56;;;;;;;0.50;0.40;;;10.40;99.90;;;;;;5039450;28;20049;-70
2022/07/29 00:45:25;;;;;;;0.40;0.40;;;10.40;99.90;;;;;;5041723;28;20156;-67
2022/07/29 00:47:52;;;;;;;1.33;0.50;;;10.40;99.90;;;;;;5035690;28;20380;-66
2022/07/29 00:50:19;;;;;;;0.50;0.50;;;10.40;99.90;;;;;;5035359;28;20146;-65
2022/07/29 00:52:46;;;;;;;1.73;0.90;;;10.30;99.90;;;;;;5035788;28;20049;-65
2022/07/29 00:55:15;;;;;;;1.85;0.80;;;10.30;99.90;;;;;;5030463;28;20352;-64
2022/07/29 00:57:44;;;;;;;1.60;0.82;;;10.30;99.90;;;;;;5045589;28;20069;-64
2022/07/29 01:00:17;;;;;;;2.60;0.88;;;10.30;99.90;;;;;;5044652;28;20132;-66
2022/07/29 01:02:45;;;;;;;1.85;0.93;;;10.30;99.90;;;;;;5046313;28;20139;-65
2022/07/29 01:05:12;;;;;;;1.02;0.60;;;10.20;99.90;;;;;;5035272;28;20099;-65
2022/07/29 01:07:39;;;;;;;3.13;0.60;;;10.20;99.90;;;;;;5038858;28;20049;-69
2022/07/29 01:10:09;;;;;;;1.10;0.70;;;10.20;99.90;;;;;;5045314;28;20045;-68
2022/07/29 01:12:37;;;;;;;0.93;0.63;;;10.20;99.90;;;;;;5045211;28;20867;-65
2022/07/29 01:15:06;;;;;;;0.60;0.38;;;10.20;99.90;;;;;;5043147;28;20061;-64
2022/07/29 01:17:39;;;;;;;1.17;1.08;;;10.20;99.90;;;;;;5042664;28;20064;-66
2022/07/29 01:20:26;;;;;;;2.00;0.80;;;10.20;99.90;;;;;;5034773;28;20597;-65
2022/07/29 01:23:00;;;;;;;1.65;0.73;;;10.20;99.90;;;;;;5028959;28;20129;-68
2022/07/29 01:25:46;;;;;;;0.82;0.57;;;10.20;99.90;;;;;;5043567;28;20183;-64
2022/07/29 01:28:51;;;;;;;0.70;0.70;;;10.10;99.90;;;;;;5029806;28;20142;-65
2022/07/29 01:31:47;;;;;;;2.47;0.60;;;10.10;99.90;;;;;;5030603;28;20072;-64
2022/07/29 01:34:47;;;;;;;0.95;0.40;;;10.10;99.90;;;;;;5022475;28;20118;-64
2022/07/29 01:37:23;;;;;;;3.72;0.90;;;10.10;99.90;;;;;;5037854;28;20053;-64
2022/07/29 01:39:54;;;;;;;1.48;0.50;;;10.10;99.90;;;;;;5043636;28;20069;-70
2022/07/29 01:42:43;;;;;;;0.63;0.55;;;10.10;99.90;;;;;;5036947;28;20175;-64
2022/07/29 01:45:39;;;;;;;1.00;0.50;;;10.00;99.90;;;;;;5035358;28;20206;-68
2022/07/29 01:48:31;;;;;;;1.45;0.60;;;10.10;99.90;;;;;;5040130;28;20336;-65
2022/07/29 01:51:12;;;;;;;0.98;0.38;;;10.10;99.90;;;;;;5043331;28;20885;-66
2022/07/29 01:53:51;;;;;;;1.70;0.60;;;10.00;99.90;;;;;;5034103;28;20437;-68
2022/07/29 01:56:20;;;;;;;0.40;0.40;;;10.00;99.90;;;;;;5040071;28;20055;-66
2022/07/29 01:58:48;;;;;;;0.57;0.57;;;10.00;99.90;;;;;;5038345;28;20107;-63
2022/07/29 02:01:17;;;;;;;0.40;0.40;;;9.90;99.90;;;;;;5043187;28;20049;-69
2022/07/29 02:03:46;;;;;;;0.55;0.40;;;9.90;99.90;;;;;;5042378;28;20048;-68
2022/07/29 02:06:18;;;;;;;1.35;0.40;;;9.90;99.90;;;;;;5040570;28;20091;-64
2022/07/29 02:08:48;;;;;;;2.22;0.63;;;9.90;99.90;;;;;;5042926;28;20415;-70
2022/07/29 02:11:15;;;;;;;1.67;0.50;;;9.80;99.90;;;;;;5035160;28;20056;-67
2022/07/29 02:13:44;;;;;;;0.57;0.57;;;9.80;99.90;;;;;;5025710;28;20099;-65
2022/07/29 02:16:13;;;;;;;0.70;0.35;;;9.80;99.90;;;;;;5038598;28;20067;-65
2022/07/29 02:18:45;;;;;;;0.30;0.30;;;9.80;99.90;;;;;;5039003;28;20049;-66
2022/07/29 02:21:15;;;;;;;0.63;0.63;;;9.80;99.90;;;;;;5032913;28;20475;-67
2022/07/29 02:23:44;;;;;;;;;;;9.80;99.90;;;;;;5040537;28;20057;-70
2022/07/29 02:26:18;;;;;;;0.45;0.40;;;9.80;99.90;;;;;;5037932;28;20259;-65
2022/07/29 02:28:47;;;;;;;0.32;0.32;;;9.80;99.90;;;;;;5040787;28;20078;-65
2022/07/29 02:31:16;;;;;;;0.47;0.38;;;9.80;99.90;;;;;;5029539;28;20140;-64
2022/07/29 02:33:45;;;;;;;0.28;0.28;;;9.80;99.90;;;;;;5041667;28;20049;-66
2022/07/29 02:36:13;;;;;;;0.28;0.28;;;9.80;99.90;;;;;;5039810;28;20169;-64
2022/07/29 02:38:50;;;;;;;1.70;0.32;;;9.80;99.90;;;;;;5038320;28;20130;-67
2022/07/29 02:41:23;;;;;;;0.70;0.52;;;9.80;99.90;;;;;;5033197;28;20045;-66
2022/07/29 02:43:56;;;;;;;0.32;0.32;;;9.80;99.90;;;;;;5035217;28;20054;-66
2022/07/29 02:46:31;;;;;;;0.30;0.20;;;9.90;99.90;;;;;;5042499;28;20039;-64
2022/07/29 02:49:15;;;;;;;0.40;0.35;;;9.90;99.90;;;;;;5043351;28;20132;-69
2022/07/29 02:51:46;;;;;;;0.85;0.70;;;9.90;99.90;;;;;;5038846;28;20463;-64
2022/07/29 02:54:39;;;;;;;0.60;0.43;;;9.90;99.90;;;;;;5044760;28;20819;-68
2022/07/29 02:57:17;;;;;;;0.70;0.60;;;9.90;99.90;;;;;;5032451;28;20085;-65
2022/07/29 02:59:47;;;;;;;8.98;1.05;;;9.90;99.90;;;;;;5036866;28;20068;-65
2022/07/29 03:02:16;;;;;;;0.40;0.40;;;9.80;99.90;;;;;;5042364;28;20775;-66
2022/07/29 03:04:44;;;;;;;1.30;0.60;;;9.80;99.90;;;;;;5040367;28;20043;-70
2022/07/29 03:07:14;;;;;;;0.98;0.50;;;9.90;99.90;;;;;;5039859;28;20037;-65
2022/07/29 03:09:42;;;;;;;0.60;0.50;;;9.90;99.90;;;;;;5037583;28;20434;-65
2022/07/29 03:12:10;;;;;;;0.60;0.60;;;9.90;99.90;;;;;;5037987;28;20073;-65
2022/07/29 03:14:38;;;;;;;1.48;0.22;;;9.90;99.90;;;;;;5037989;28;20144;-64
2022/07/29 03:17:05;;;;;;;1.42;0.90;;;9.90;99.90;;;;;;5039345;28;20049;-67
2022/07/29 03:19:32;;;;;;;1.17;0.43;;;9.90;99.90;;;;;;5041174;28;20530;-64
2022/07/29 03:21:59;;;;;;;1.83;0.40;;;9.90;99.90;;;;;;5040792;28;20179;-67
2022/07/29 03:24:29;;;;;;;1.88;0.70;;;9.90;99.90;;;;;;5043127;28;20045;-64
2022/07/29 03:26:57;;;;;;;0.30;0.30;;;10.00;99.90;;;;;;5038234;28;20132;-65
2022/07/29 03:29:25;;;;;;;0.68;0.30;;;10.00;99.90;;;;;;5029520;28;20433;-64
2022/07/29 03:32:01;;;;;;;3.00;0.40;;;10.00;99.90;;;;;;5036047;28;20574;-68
2022/07/29 03:34:30;;;;;;;0.95;0.95;;;10.00;99.90;;;;;;5039760;28;20144;-68
2022/07/29 03:36:57;;;;;;;1.48;0.43;;;10.10;99.90;;;;;;5043691;28;20045;-64
2022/07/29 03:39:28;;;;;;;4.70;1.17;;;10.20;99.90;;;;;;5039506;28;20061;-70
2022/07/29 03:41:57;;;;;;;0.88;0.70;;;10.20;99.90;;;;;;5039506;28;20114;-66
2022/07/29 03:44:26;;;;;;;1.40;0.50;;;10.20;99.90;;;;;;5039429;28;20464;-64
2022/07/29 03:46:57;;;;;;;0.57;0.50;;;10.30;99.90;;;;;;5030833;28;20141;-63
2022/07/29 03:49:25;;;;;;;0.63;0.63;;;10.30;99.90;;;;;;5034105;28;20067;-64
2022/07/29 03:51:52;;;;;;;0.43;0.40;;;10.30;99.90;;;;;;5042068;28;20371;-65
2022/07/29 03:54:19;;;;;;;1.17;0.55;;;10.40;99.90;;;;;;5047880;28;20095;-65
2022/07/29 03:56:50;;;;;;;0.60;0.55;;;10.40;99.90;;;;;;5040993;28;20402;-67
2022/07/29 03:59:17;;;;;;;1.08;1.00;;;10.40;99.90;;;;;;5036969;28;20133;-64
2022/07/29 04:01:45;;;;;;;0.40;0.40;;;10.50;99.90;;;;;;5040643;28;20152;-64
2022/07/29 04:04:12;;;;;;;0.40;0.40;;;10.50;99.90;;;;;;5037258;28;20413;-65
2022/07/29 04:06:40;;;;;;;2.58;0.47;;;10.60;99.90;;;;;;5039567;28;20041;-67
2022/07/29 04:09:07;;;;;;;0.73;0.38;;;10.60;99.90;;;;;;5036051;28;20068;-66
2022/07/29 04:11:37;;;;;;;0.30;0.30;;;10.70;99.90;;;;;;5043970;28;20037;-64
2022/07/29 04:14:24;;;;;;;0.47;0.47;;;10.80;99.90;;;;;;5039511;28;20049;-65
2022/07/29 04:16:52;;;;;;;1.40;0.80;;;10.80;99.90;;;;;;5038919;28;20931;-64
2022/07/29 04:19:19;;;;;;;0.63;0.35;;;10.90;99.90;;;;;;5038029;28;20056;-71
2022/07/29 04:21:46;;;;;;;2.35;0.40;;;11.00;99.90;;;;;;5042923;28;20151;-66
2022/07/29 04:24:13;;;;;;;1.27;0.40;;;11.00;99.90;;;;;;5038795;28;20766;-65
2022/07/29 04:26:41;;;;;;;0.45;0.40;;;11.10;99.90;;;;;;5039105;28;20128;-69
2022/07/29 04:29:08;;;;;;;0.30;0.30;;;11.10;99.90;;;;;;5024996;28;20054;-65
2022/07/29 04:31:35;;;;;;;0.45;0.45;;;11.20;99.90;;;;;;5032606;28;20037;-67
2022/07/29 04:34:02;;;;;;;0.30;0.20;;;11.30;99.90;;;;;;5037272;28;20045;-65
2022/07/29 04:36:29;;;;;;;0.47;0.32;;;11.30;99.90;;;;;;5032963;28;20398;-66
2022/07/29 04:38:56;;;;;;;0.17;0.17;;;11.40;99.90;;;;;;5034477;28;20241;-65
2022/07/29 04:41:23;;;;;;;0.65;0.60;;;11.40;99.90;;;;;;5043879;28;20056;-66
2022/07/29 04:44:00;;;;;;;1.13;0.40;;;11.50;99.90;;;;;;5029807;28;20041;-65
2022/07/29 04:46:27;;;;;;;0.40;0.40;;;11.60;99.90;;;;;;5030759;28;20096;-64
2022/07/29 04:48:54;;;;;;;0.45;0.30;;;11.70;99.90;;;;;;5020074;28;20054;-66
2022/07/29 04:51:22;;;;;;;1.83;0.30;;;11.80;99.90;;;;;;5031537;28;20426;-64
2022/07/29 04:53:49;;;;;;;0.55;0.43;;;11.80;99.90;;;;;;5034045;28;20053;-65
2022/07/29 04:56:16;;;;;;;1.15;0.70;;;11.90;99.90;;;;;;5042575;28;20104;-64
2022/07/29 04:58:42;;;;;;;0.75;0.65;;;12.00;99.90;;;;;;5035305;28;20099;-66
2022/07/29 05:01:09;;;;;;;0.57;0.20;;;12.10;99.90;;;;;;5041846;28;20057;-68
2022/07/29 05:03:36;;;;;;;1.58;0.20;;;12.20;99.90;;;;;;5038161;28;20100;-63
2022/07/29 05:06:03;;;;;;;0.30;0.28;;;12.30;99.90;;;;;;5017790;28;20162;-64
2022/07/29 05:08:30;;;;;;;0.43;0.40;;;12.40;99.90;;;;;;5033846;28;20148;-65
2022/07/29 05:10:57;;;;;;;0.95;0.32;;;12.50;99.90;;;;;;5042805;28;20144;-67
2022/07/29 05:13:38;;;;;;;0.40;0.40;;;12.60;99.90;;;;;;5025789;28;21122;-68
2022/07/29 05:16:13;;;;;;;1.85;0.50;;;12.90;99.90;;;;;;5040475;28;21694;-65
2022/07/29 05:18:40;;;;;;;0.47;0.47;;;13.00;99.90;;;;;;5028981;28;20235;-66
2022/07/29 05:21:07;;;;;;;0.43;0.30;;;13.10;99.90;;;;;;5032911;28;20068;-65
2022/07/29 05:23:34;;;;;;;0.20;0.20;;;13.20;99.90;;;;;;5035709;28;20467;-64
2022/07/29 05:26:01;;;;;;;0.95;0.40;;;13.30;99.90;;;;;;5034799;28;20701;-68
2022/07/29 05:28:28;;;;;;;0.60;0.60;;;13.40;99.90;;;;;;5030349;28;20069;-65
2022/07/29 05:30:56;;;;;;;2.40;0.43;;;13.60;99.90;;;;;;5011565;28;20152;-69
2022/07/29 05:33:23;;;;;;;1.00;0.57;;;13.60;99.90;;;;;;5047731;28;20045;-65
2022/07/29 05:36:06;;;;;;;0.60;0.30;;;13.80;99.90;;;;;;5033805;28;20439;-65
2022/07/29 05:38:35;;;;;;;3.10;0.75;;;13.90;99.90;;;;;;5027141;28;20687;-64
2022/07/29 05:41:03;;;;;;;0.30;0.25;;;14.10;99.90;;;;;;5036369;28;20049;-65
2022/07/29 05:43:30;;;;;;;1.13;0.40;;;14.30;99.90;;;;;;5027657;28;20729;-66
2022/07/29 05:45:57;;;;;;;0.50;0.50;;;14.40;99.90;;;;;;5024353;28;20116;-64
2022/07/29 05:48:25;;;;;;;0.47;0.40;;;14.50;99.90;;;;;;5026815;28;20063;-64
2022/07/29 05:50:52;;;;;;;1.45;0.30;;;14.70;99.90;;;;;;5028333;28;20054;-71
2022/07/29 05:53:19;;;;;;;0.57;0.40;;;14.80;99.90;;;;;;5023306;28;20104;-65
2022/07/29 05:55:47;;;;;;;0.30;0.28;;;14.90;99.90;;;;;;5019042;28;20076;-64
2022/07/29 05:58:14;;;;;;;0.40;0.35;;;15.00;99.90;;;;;;5043126;28;20386;-67
2022/07/29 06:00:41;;;;;;;0.82;0.50;;;15.20;99.90;;;;;;5042082;28;20045;-65
2022/07/29 06:03:08;;;;;;;0.40;0.40;;;15.30;99.90;;;;;;5037929;28;20084;-64
2022/07/29 06:05:35;;;;;;;0.47;0.40;;;15.50;99.90;;;;;;5035316;28;20122;-65
2022/07/29 06:08:05;;;;;;;1.52;0.50;;;15.70;99.90;;;;;;5023644;28;20164;-66
2022/07/29 06:10:32;;;;;;;2.88;0.40;;;15.90;99.90;;;;;;5020468;28;20053;-63
2022/07/29 06:12:59;;;;;;;0.28;0.28;;;16.00;99.90;;;;;;5032981;28;20843;-69
2022/07/29 06:15:26;;;;;;;0.20;0.20;;;16.00;99.90;;;;;;5040935;28;20426;-67
2022/07/29 06:17:53;;;;;;;0.50;0.50;;;16.20;99.90;;;;;;5043647;28;20049;-67
2022/07/29 06:20:30;;;;;;;0.57;0.40;;;16.40;99.90;;;;;;5036609;28;20379;-67
2022/07/29 06:22:59;;;;;;;0.50;0.50;;;16.40;99.90;;;;;;5035294;28;20070;-65
2022/07/29 06:25:28;;;;;;;0.60;0.50;;;16.50;99.90;;;;;;5041151;28;20040;-68
2022/07/29 06:27:56;;;;;;;0.75;0.50;;;16.70;99.90;;;;;;5033339;28;20049;-64
2022/07/29 06:30:23;;;;;;;1.17;0.40;;;16.80;99.90;;;;;;5044097;28;20064;-64
2022/07/29 06:32:50;;;;;;;1.67;0.60;;;16.90;99.90;;;;;;5037830;28;20049;-71
2022/07/29 06:35:18;;;;;;;1.95;0.75;;;17.00;99.90;;;;;;5033955;28;20724;-64
2022/07/29 06:38:04;;;;;;;1.58;0.65;;;17.00;99.90;;;;;;5027794;28;20085;-69
2022/07/29 06:41:00;;;;;;;0.68;0.50;;;17.10;99.90;;;;;;5035352;28;20052;-66
2022/07/29 06:43:51;;;;;;;1.08;0.95;;;17.10;99.90;;;;;;5025217;28;20128;-67
2022/07/29 06:46:22;;;;;;;0.25;0.25;;;17.10;99.90;;;;;;5034214;28;20103;-64
2022/07/29 06:48:51;;;;;;;0.50;0.45;;;17.20;99.90;;;;;;5034133;28;20049;-66
2022/07/29 06:51:19;;;;;;;0.60;0.30;;;17.20;99.90;;;;;;5026828;28;20053;-65
2022/07/29 06:53:51;;;;;;;0.30;0.30;;;17.30;99.90;;;;;;5036053;28;20053;-67
2022/07/29 06:56:31;;;;;;;0.52;0.50;;;17.30;99.90;;;;;;5036165;28;20140;-65
2022/07/29 06:59:08;;;;;;;0.40;0.40;;;17.40;99.90;;;;;;5022491;28;20381;-68
2022/07/29 07:01:37;;;;;;;0.70;0.40;;;17.50;99.90;;;;;;5033067;28;20120;-66
2022/07/29 07:04:04;;;;;;;0.55;0.20;;;17.60;99.90;;;;;;5025904;28;20103;-65
2022/07/29 07:06:31;;;;;;;1.77;1.55;;;17.60;99.90;;;;;;5021141;28;20073;-67
2022/07/29 07:08:58;;;;;;;0.70;0.60;;;17.70;99.90;;;;;;5040321;28;20040;-65
2022/07/29 07:11:25;;;;;;;0.52;0.30;;;17.70;99.90;;;;;;5024851;28;20100;-66
2022/07/29 07:13:52;;;;;;;1.13;0.30;;;17.80;99.90;;;;;;5036677;28;20190;-70
2022/07/29 07:16:19;;;;;;;0.82;0.50;;;17.90;99.90;;;;;;5032256;28;20049;-65
2022/07/29 07:18:46;;;;;;;3.40;0.63;;;17.90;99.90;;;;;;5039910;28;20041;-64
2022/07/29 07:21:14;;;;;;;0.65;0.30;;;17.90;99.90;;;;;;5036573;28;20041;-68
2022/07/29 07:23:45;;;;;;;1.75;0.50;;;18.00;99.90;;;;;;5027897;28;20041;-68
2022/07/29 07:26:12;;;;;;;0.52;0.28;;;18.00;99.90;;;;;;5037895;28;20107;-65
2022/07/29 07:28:39;;;;;;;0.38;0.32;;;18.10;99.90;;;;;;5026293;28;20088;-68
2022/07/29 07:31:06;;;;;;;0.95;0.40;;;18.10;99.90;;;;;;5029691;28;20048;-67
2022/07/29 07:33:33;;;;;;;0.40;0.40;;;18.10;99.90;;;;;;5034435;28;20156;-69
2022/07/29 07:36:00;;;;;;;0.63;0.30;;;18.30;99.90;;;;;;5039115;28;20102;-67
2022/07/29 07:38:27;;;;;;;0.98;0.30;;;18.40;99.90;;;;;;5042416;28;20589;-64
2022/07/29 07:40:54;;;;;;;0.40;0.40;;;18.40;99.90;;;;;;5031970;28;20144;-66
2022/07/29 07:43:21;;;;;;;2.50;2.03;;;18.40;99.90;;;;;;5035596;28;20088;-70
2022/07/29 07:45:49;;;;;;;0.22;0.20;;;18.40;99.90;;;;;;5037273;28;20045;-65
2022/07/29 07:48:16;;;;;;;0.68;0.68;;;18.30;99.90;;;;;;5041551;28;20036;-64
2022/07/29 07:50:43;;;;;;;1.35;0.52;;;18.30;99.90;;;;;;5027777;28;20163;-70
2022/07/29 07:53:10;;;;;;;1.85;0.57;;;18.30;99.90;;;;;;5025353;28;20046;-66
2022/07/29 07:55:41;;;;;;;0.82;0.40;;;18.30;99.90;;;;;;5028816;28;20042;-65
2022/07/29 07:58:28;;;;;;;1.60;0.40;;;18.40;99.90;;;;;;5037475;28;20047;-67
2022/07/29 08:00:55;;;;;;;3.78;0.30;;;18.50;99.90;;;;;;5041091;28;20617;-65
2022/07/29 08:03:22;;;;;;;0.40;0.40;;;18.70;99.90;;;;;;5035751;28;22132;-65
2022/07/29 08:05:51;;;;;;;0.30;0.30;;;18.80;99.90;;;;;;5031544;28;20049;-65
2022/07/29 08:08:18;;;;;;;1.90;0.68;;;18.80;99.90;;;;;;5034776;28;20078;-71
2022/07/29 08:10:55;;;;;;;1.75;0.40;;;18.80;99.90;;;;;;5036969;28;20461;-68
2022/07/29 08:13:27;;;;;;;0.52;0.40;;;18.80;99.90;;;;;;5030751;28;22629;-65
2022/07/29 08:15:57;;;;;;;1.17;0.20;;;18.70;99.90;;;;;;5019302;28;20826;-70
2022/07/29 08:18:26;;;;;;;0.70;0.50;;;18.80;99.90;;;;;;5022752;28;20068;-66
2022/07/29 08:20:53;;;;;;;0.80;0.45;;;18.80;99.90;;;;;;5022559;28;20139;-68
2022/07/29 08:23:20;;;;;;;0.80;0.47;;;18.90;99.90;;;;;;5018656;28;20757;-64
2022/07/29 08:25:48;;;;;;;1.13;0.75;;;18.90;99.90;;;;;;5020975;28;20468;-64
2022/07/29 08:28:16;;;;;;;2.38;0.45;;;19.10;99.90;;;;;;5011129;28;20037;-65
2022/07/29 08:30:43;;;;;;;1.38;0.38;;;19.20;99.90;;;;;;5020566;28;20057;-64
2022/07/29 08:33:10;;;;;;;1.20;0.50;;;19.10;99.90;;;;;;4986059;28;20073;-66
2022/07/29 08:35:38;;;;;;;0.40;0.30;;;19.00;99.90;;;;;;5022318;28;20182;-64
2022/07/29 08:38:05;;;;;;;2.72;0.82;;;19.00;99.90;;;;;;5023022;28;20515;-69
2022/07/29 08:40:32;;;;;;;0.35;0.30;;;19.10;99.90;;;;;;5025515;28;20632;-67
2022/07/29 08:43:05;;;;;;;1.48;0.40;;;19.10;99.90;;;;;;5023022;28;20057;-67
2022/07/29 08:45:46;;;;;;;0.40;0.30;;;19.10;99.90;;;;;;5016835;28;20044;-65
2022/07/29 08:48:19;;;;;;;1.08;0.98;;;19.20;99.90;;;;;;5024657;28;20040;-64
2022/07/29 08:50:48;;;;;;;1.23;0.43;;;19.10;99.90;;;;;;5023554;28;20050;-66
2022/07/29 08:53:17;;;;;;;0.85;0.50;;;19.10;99.90;;;;;;5018036;28;20136;-66
2022/07/29 08:55:49;;;;;;;1.02;0.50;;;19.10;99.90;;;;;;5020577;28;20192;-64
2022/07/29 08:58:16;;;;;;;0.30;0.20;;;19.10;99.90;;;;;;5016204;28;20844;-65
2022/07/29 09:00:53;;;;;;;0.20;0.15;;;19.10;99.90;;;;;;5019956;28;20045;-64
2022/07/29 09:03:24;;;;;;;0.30;0.30;;;18.90;99.90;;;;;;5018549;28;20037;-69
2022/07/29 09:05:52;;;;;;;1.52;0.57;;;18.90;99.90;;;;;;5018986;28;20096;-67
2022/07/29 09:08:19;;;;;;;1.20;0.50;;;18.90;99.90;;;;;;5020205;28;20133;-68
2022/07/29 09:10:47;;;;;;;3.28;0.90;;;18.80;99.90;;;;;;5020874;28;20428;-70
2022/07/29 09:13:14;;;;;;;0.77;0.50;;;18.90;99.90;;;;;;5020807;28;20049;-64
2022/07/29 09:15:41;;;;;;;0.55;0.55;;;18.80;99.90;;;;;;5019889;28;20141;-69
2022/07/29 09:18:08;;;;;;;4.65;0.93;;;18.70;99.90;;;;;;5013581;28;20046;-66
2022/07/29 09:23:42;;;;;;;3.58;0.70;;;18.20;99.90;;;;;;5020153;28;20133;-66
2022/07/29 09:26:09;;;;;;;2.55;0.88;;;18.00;99.90;;;;;;5019873;28;20152;-65
2022/07/29 09:28:42;;;;;;;3.00;0.40;;;17.90;99.90;;;;;;5013521;28;20119;-69
2022/07/29 09:31:09;;;;;;;0.65;0.50;;;17.90;99.90;;;;;;5020594;28;20139;-65
2022/07/29 09:33:39;;;;;;;0.52;0.50;;;17.80;99.90;;;;;;5019067;28;20486;-65
2022/07/29 09:36:08;;;;;;;1.23;0.50;;;17.60;99.90;;;;;;5017371;28;20049;-67
2022/07/29 09:38:37;;;;;;;0.50;0.50;;;17.60;99.90;;;;;;5004894;28;20148;-68
2022/07/29 09:41:05;;;;;;;0.50;0.50;;;17.40;99.90;;;;;;5009825;28;20149;-65
2022/07/29 09:43:33;;;;;;;0.35;0.30;;;17.40;99.90;;;;;;5016035;28;20140;-66
2022/07/29 09:46:14;;;;;;;0.30;0.28;;;17.30;99.90;;;;;;5009008;28;20042;-66
2022/07/29 09:48:41;;;;;;;0.60;0.60;;;17.30;99.90;;;;;;5012840;28;20065;-66
2022/07/29 09:51:19;;;;;;;1.30;0.43;;;17.30;99.90;;;;;;4999459;28;20054;-65
2022/07/29 09:53:52;;;;;;;1.38;0.73;;;17.20;99.90;;;;;;4997484;28;20092;-64
2022/07/29 09:56:19;;;;;;;0.30;0.30;;;17.20;99.90;;;;;;5018762;28;20057;-65
2022/07/29 09:58:46;;;;;;;1.35;0.88;;;17.30;99.90;;;;;;5018978;28;20111;-64
2022/07/29 10:01:13;;;;;;;0.85;0.82;;;17.30;99.90;;;;;;5004441;28;20157;-67
2022/07/29 10:03:53;;;;;;;3.15;0.98;;;17.40;99.90;;;;;;4992520;28;20054;-68
2022/07/29 10:06:20;;;;;;;1.00;1.00;;;17.40;99.90;;;;;;5022813;28;20053;-67
2022/07/29 10:08:47;;;;;;;2.38;0.73;;;17.50;99.90;;;;;;5013078;28;20147;-66
2022/07/29 10:11:18;;;;;;;3.30;0.60;;;17.60;99.90;;;;;;5019225;28;20117;-66
2022/07/29 10:13:47;;;;;;;0.93;0.60;;;17.80;99.90;;;;;;5018337;28;20662;-66
2022/07/29 10:16:15;;;;;;;0.60;0.52;;;17.80;99.90;;;;;;5023812;28;20076;-68
2022/07/29 10:18:44;;;;;;;0.45;0.38;;;18.00;99.90;;;;;;5015287;28;20132;-65
2022/07/29 10:21:12;;;;;;;1.25;0.30;;;18.10;99.90;;;;;;5016899;28;20123;-68
2022/07/29 10:23:59;;;;;;;0.57;0.40;;;18.30;99.90;;;;;;5010706;28;20181;-70
2022/07/29 10:26:29;;;;;;;0.40;0.40;;;18.40;99.90;;;;;;5019435;28;20687;-65
2022/07/29 10:28:56;;;;;;;1.75;1.23;;;18.50;99.90;;;;;;5014102;28;20442;-69
2022/07/29 10:31:33;;;;;;;0.52;0.52;;;18.60;99.90;;;;;;5008688;28;20143;-68
2022/07/29 10:34:20;;;;;;;0.60;0.30;;;18.50;99.90;;;;;;5019828;28;20609;-66
2022/07/29 10:36:59;;;;;;;0.93;0.77;;;18.50;99.90;;;;;;5016851;28;20048;-68
2022/07/29 10:39:32;;;;;;;0.85;0.82;;;18.50;99.90;;;;;;5015679;28;20116;-65
2022/07/29 10:42:21;;;;;;;1.58;1.02;;;18.50;99.90;;;;;;5018310;28;20688;-67
2022/07/29 10:45:03;;;;;;;1.42;0.90;;;18.50;99.90;;;;;;5017088;28;20063;-65
2022/07/29 10:47:31;;;;;;;1.10;0.70;;;18.60;99.90;;;;;;5017657;28;20372;-69
2022/07/29 10:50:06;;;;;;;0.30;0.30;;;18.70;99.90;;;;;;5019119;28;20091;-65
2022/07/29 10:52:54;;;;;;;0.90;0.50;;;18.80;99.90;;;;;;5018909;28;20188;-67
2022/07/29 10:55:42;;;;;;;1.75;0.50;;;18.80;99.90;;;;;;5010189;28;20053;-64
2022/07/29 10:58:14;;;;;;;1.27;0.52;;;18.90;99.90;;;;;;5015614;28;20045;-65
2022/07/29 11:00:44;;;;;;;1.17;0.40;;;18.90;99.90;;;;;;5019907;28;20053;-65
2022/07/29 11:03:40;;;;;;;0.40;0.40;;;18.80;99.90;;;;;;5019187;28;20159;-68
2022/07/29 11:06:18;;;;;;;1.13;0.50;;;18.80;99.90;;;;;;5023509;28;20091;-65
2022/07/29 11:09:16;;;;;;;0.82;0.30;;;18.90;99.90;;;;;;5023689;28;20048;-68
2022/07/29 11:11:43;;;;;;;0.65;0.30;;;18.90;99.90;;;;;;5021106;28;20049;-68
2022/07/29 11:14:18;;;;;;;4.40;2.15;;;19.10;99.90;;;;;;5019594;28;20046;-66
2022/07/29 11:17:06;;;;;;;1.17;0.98;;;19.30;99.90;;;;;;5019580;28;20452;-65
2022/07/29 11:19:33;;;;;;;0.50;0.43;;;19.50;99.90;;;;;;5015401;28;20041;-68
2022/07/29 11:22:01;;;;;;;0.98;0.68;;;19.70;99.90;;;;;;5021508;28;20044;-67
2022/07/29 11:24:34;;;;;;;0.85;0.63;;;19.90;99.90;;;;;;5021799;28;20036;-66
2022/07/29 11:27:17;;;;;;;1.40;0.55;;;20.00;99.90;;;;;;5021959;28;20061;-65
2022/07/29 11:29:57;;;;;;;0.70;0.60;;;19.80;99.90;;;;;;5019965;28;20132;-66
2022/07/29 11:32:45;;;;;;;0.93;0.55;;;19.50;99.90;;;;;;5019444;28;20052;-66
2022/07/29 11:35:17;;;;;;;2.42;0.40;;;19.30;99.90;;;;;;5022005;28;20065;-65
2022/07/29 11:37:46;;;;;;;0.88;0.40;;;19.20;99.90;;;;;;5021186;28;20064;-65
2022/07/29 11:40:23;;;;;;;0.98;0.40;;;19.30;99.90;;;;;;5016241;28;20058;-67
2022/07/29 11:42:51;;;;;;;0.55;0.47;;;19.40;99.90;;;;;;5017349;28;20475;-65
2022/07/29 11:45:23;;;;;;;1.42;0.60;;;19.60;99.90;;;;;;5020361;28;20771;-66
2022/07/29 11:48:17;;;;;;;0.85;0.60;;;19.60;99.90;;;;;;5014855;28;20050;-67
2022/07/29 11:50:59;;;;;;;0.52;0.32;;;19.80;99.90;;;;;;5018937;28;20145;-66
2022/07/29 11:53:26;;;;;;;2.92;1.00;;;19.90;99.90;;;;;;5016328;28;20041;-68
2022/07/29 11:56:00;;;;;;;1.80;0.47;;;20.00;99.90;;;;;;5023455;28;20041;-66
2022/07/29 11:58:29;;;;;;;0.82;0.50;;;20.00;99.90;;;;;;5022503;28;20543;-64
2022/07/29 12:00:57;;;;;;;1.33;0.68;;;20.20;99.90;;;;;;5022512;28;20045;-67
2022/07/29 12:03:30;;;;;;;0.73;0.40;;;20.30;99.90;;;;;;5017617;28;20057;-65
2022/07/29 12:06:12;;;;;;;0.75;0.73;;;20.50;99.90;;;;;;5023689;28;20064;-68
2022/07/29 12:08:42;;;;;;;0.95;0.28;;;20.40;99.90;;;;;;5023904;28;20041;-65
2022/07/29 12:11:18;;;;;;;1.17;0.40;;;20.30;99.90;;;;;;5019885;28;20151;-67
2022/07/29 12:13:47;;;;;;;1.48;1.15;;;20.30;99.90;;;;;;5024303;28;20053;-67
2022/07/29 12:16:15;;;;;;;3.22;0.70;;;20.40;99.90;;;;;;5023074;28;20112;-70
2022/07/29 12:19:02;;;;;;;1.98;0.52;;;20.40;99.90;;;;;;5024229;28;20387;-65
2022/07/29 12:21:53;;;;;;;4.93;1.17;;;20.20;99.90;;;;;;5011394;28;20534;-64
2022/07/29 12:24:23;;;;;;;1.98;0.70;;;20.30;99.90;;;;;;5022986;28;20051;-64
2022/07/29 12:27:00;;;;;;;0.52;0.40;;;20.50;99.90;;;;;;5033494;28;20106;-68
2022/07/29 12:29:28;;;;;;;1.40;0.85;;;20.40;99.90;;;;;;5023046;28;20045;-67
2022/07/29 12:32:01;;;;;;;1.33;0.52;;;20.30;99.90;;;;;;5018947;28;20053;-67
2022/07/29 12:34:29;;;;;;;0.63;0.45;;;20.20;99.90;;;;;;5022045;28;20044;-68
2022/07/29 12:36:56;;;;;;;1.23;0.60;;;20.30;99.90;;;;;;5023869;28;20447;-64
2022/07/29 12:39:26;;;;;;;4.63;0.82;;;20.30;99.90;;;;;;5024188;28;20604;-66
2022/07/29 12:41:53;;;;;;;1.70;1.00;;;20.20;99.90;;;;;;5016064;28;20607;-69
2022/07/29 12:44:48;;;;;;;2.17;0.43;;;20.30;99.90;;;;;;5025389;28;20603;-71
2022/07/29 12:47:16;;;;;;;0.65;0.40;;;20.60;99.90;;;;;;5020381;28;20173;-68
2022/07/29 12:49:42;;;;;;;0.80;0.50;;;20.70;99.90;;;;;;5017024;28;20197;-67
2022/07/29 12:52:34;;;;;;;0.68;0.50;;;20.70;99.90;;;;;;5023621;28;20057;-65
2022/07/29 12:55:02;;;;;;;0.47;0.40;;;20.70;99.90;;;;;;5018782;28;20046;-68
2022/07/29 12:57:29;;;;;;;2.33;0.60;;;20.70;99.90;;;;;;5023382;28;20137;-67
2022/07/29 13:00:02;;;;;;;1.42;0.60;;;20.70;99.90;;;;;;5019905;28;20515;-68
2022/07/29 13:02:29;;;;;;;5.47;1.17;;;20.60;99.90;;;;;;5024900;28;20776;-64
2022/07/29 13:05:00;;;;;;;0.98;0.55;;;20.60;99.90;;;;;;5023283;28;20085;-68
2022/07/29 13:07:29;;;;;;;0.70;0.50;;;20.70;99.90;;;;;;5023189;28;20045;-64
2022/07/29 13:10:18;;;;;;;2.15;1.05;;;20.90;99.90;;;;;;5020209;28;20416;-70
2022/07/29 13:13:11;;;;;;;1.48;0.70;;;20.90;99.90;;;;;;5019179;28;20049;-70
2022/07/29 13:15:43;;;;;;;1.65;0.47;;;20.70;99.90;;;;;;5027626;28;20052;-68